Time;durP1;ratioP1;P1;durP2;ratioP2;P2;SDS_P1;SDS_P2;PMS_P1;PMS_P2;Temp;Humidity;BMP_temperature;BMP_pressure;BME280_temperature;BME280_humidity;BME280_pressure;Samples;Min_cycle;Max_cycle;Signal;HPM_P1;HPM_P2
2023/05/20 00:00:31;;;;;;;13.75;5.22;;;11.60;99.90;;;;;;4986357;28;20041;-87
2023/05/20 00:02:59;;;;;;;12.10;4.82;;;11.70;99.90;;;;;;5028605;28;20174;-86
2023/05/20 00:05:25;;;;;;;12.45;4.70;;;11.60;99.90;;;;;;4995526;28;20044;-86
2023/05/20 00:07:51;;;;;;;11.43;5.22;;;11.60;99.90;;;;;;5009728;28;20398;-86
2023/05/20 00:10:16;;;;;;;10.32;5.10;;;11.60;99.90;;;;;;5016095;28;20041;-86
2023/05/20 00:12:42;;;;;;;11.15;4.53;;;11.60;99.90;;;;;;5016795;28;20064;-86
2023/05/20 00:15:10;;;;;;;13.52;4.85;;;11.50;99.90;;;;;;4993472;28;20056;-86
2023/05/20 00:17:36;;;;;;;15.50;5.13;;;11.50;99.90;;;;;;5012618;28;20052;-86
2023/05/20 00:20:04;;;;;;;13.20;4.78;;;11.50;99.90;;;;;;4982874;28;20033;-86
2023/05/20 00:22:29;;;;;;;10.13;4.30;;;11.50;99.90;;;;;;5026149;28;20043;-84
2023/05/20 00:24:55;;;;;;;12.90;5.03;;;11.50;99.90;;;;;;5013088;28;20045;-87
2023/05/20 00:27:21;;;;;;;15.63;4.90;;;11.50;99.90;;;;;;5011692;28;20064;-86
2023/05/20 00:29:47;;;;;;;13.55;5.03;;;11.50;99.90;;;;;;5026160;28;20053;-86
2023/05/20 00:32:13;;;;;;;16.13;4.97;;;11.50;99.90;;;;;;4999271;28;20154;-87
2023/05/20 00:34:38;;;;;;;11.05;4.80;;;11.50;99.90;;;;;;4998522;28;20042;-86
2023/05/20 00:37:04;;;;;;;8.75;4.70;;;11.40;99.90;;;;;;5004849;28;20032;-86
2023/05/20 00:39:30;;;;;;;14.05;5.30;;;11.40;99.90;;;;;;5001214;28;20045;-86
2023/05/20 00:41:59;;;;;;;12.88;5.43;;;11.40;99.90;;;;;;5000119;28;20040;-86
2023/05/20 00:44:25;;;;;;;13.57;5.10;;;11.40;99.90;;;;;;5015834;28;20048;-86
2023/05/20 00:46:52;;;;;;;10.30;4.80;;;11.30;99.90;;;;;;5003234;28;20036;-85
2023/05/20 00:49:18;;;;;;;13.43;4.95;;;11.40;99.90;;;;;;4982137;28;20069;-86
2023/05/20 00:51:44;;;;;;;14.23;4.93;;;11.30;99.90;;;;;;4993030;28;20047;-86
2023/05/20 00:54:10;;;;;;;11.02;5.07;;;11.30;99.90;;;;;;4982334;28;20037;-86
2023/05/20 00:56:36;;;;;;;13.35;5.07;;;11.20;99.90;;;;;;5001827;28;20032;-86
2023/05/20 00:59:02;;;;;;;15.52;5.38;;;11.20;99.90;;;;;;4985323;28;20041;-86
2023/05/20 01:01:27;;;;;;;13.15;4.95;;;11.20;99.90;;;;;;5006807;28;20053;-86
2023/05/20 01:03:53;;;;;;;13.90;5.97;;;11.20;99.90;;;;;;5010783;28;20076;-86
2023/05/20 01:06:19;;;;;;;13.48;5.57;;;11.10;99.90;;;;;;5017995;28;20503;-86
2023/05/20 01:08:44;;;;;;;13.77;5.70;;;11.10;99.90;;;;;;4985835;28;20037;-87
2023/05/20 01:11:13;;;;;;;15.57;5.50;;;11.00;99.90;;;;;;4986141;28;20069;-86
2023/05/20 01:13:45;;;;;;;10.45;5.10;;;11.10;99.90;;;;;;5011288;28;20091;-86
2023/05/20 01:16:16;;;;;;;13.27;5.78;;;11.10;99.90;;;;;;5008832;28;20495;-86
2023/05/20 01:18:42;;;;;;;14.18;5.38;;;11.10;99.90;;;;;;5002555;28;20112;-87
2023/05/20 01:21:12;;;;;;;17.75;6.05;;;11.10;99.90;;;;;;4990712;28;20663;-87
2023/05/20 01:23:40;;;;;;;13.57;5.50;;;11.10;99.90;;;;;;4991864;28;20098;-86
2023/05/20 01:26:06;;;;;;;14.27;5.65;;;11.00;99.90;;;;;;4996560;28;20063;-87
2023/05/20 01:28:37;;;;;;;13.07;5.25;;;11.00;99.90;;;;;;5013162;28;20528;-86
2023/05/20 01:31:07;;;;;;;10.30;4.65;;;11.00;99.90;;;;;;5009985;28;20057;-86
2023/05/20 01:33:36;;;;;;;11.38;5.15;;;11.00;99.90;;;;;;5011015;28;20037;-85
2023/05/20 01:36:02;;;;;;;11.82;5.28;;;11.00;99.90;;;;;;5017586;28;20492;-85
2023/05/20 01:38:29;;;;;;;14.60;5.25;;;10.90;99.90;;;;;;5020406;28;20052;-86
2023/05/20 01:40:56;;;;;;;11.45;5.68;;;11.00;99.90;;;;;;4998186;28;20044;-86
2023/05/20 01:43:24;;;;;;;11.15;5.18;;;11.00;99.90;;;;;;5049584;28;20049;-86
2023/05/20 01:45:50;;;;;;;14.80;5.43;;;11.00;99.90;;;;;;5026720;28;20540;-85
2023/05/20 01:48:16;;;;;;;7.85;5.50;;;11.00;99.90;;;;;;5016731;28;20128;-86
2023/05/20 01:50:42;;;;;;;11.65;5.10;;;11.00;99.90;;;;;;4986078;28;20037;-87
2023/05/20 01:53:08;;;;;;;10.82;5.28;;;11.00;99.90;;;;;;5011192;28;20040;-86
2023/05/20 01:55:34;;;;;;;8.32;5.15;;;11.00;99.90;;;;;;4997769;28;20041;-87
2023/05/20 01:58:01;;;;;;;13.13;6.03;;;11.00;99.90;;;;;;5000131;28;20037;-86
2023/05/20 02:00:26;;;;;;;12.82;5.43;;;11.00;99.90;;;;;;4998111;28;20477;-85
2023/05/20 02:02:52;;;;;;;11.35;5.18;;;11.10;99.90;;;;;;5018898;28;20094;-86
2023/05/20 02:05:18;;;;;;;14.20;5.55;;;11.10;99.90;;;;;;5005019;28;20056;-86
2023/05/20 02:07:44;;;;;;;16.35;5.75;;;11.10;99.90;;;;;;5031368;28;20037;-87
2023/05/20 02:10:10;;;;;;;8.32;4.72;;;11.10;99.90;;;;;;5003516;28;20501;-88
2023/05/20 02:12:35;;;;;;;15.13;5.68;;;11.10;99.90;;;;;;5016709;28;20036;-86
2023/05/20 02:15:01;;;;;;;11.50;5.07;;;11.10;99.90;;;;;;4988167;28;20401;-87
2023/05/20 02:17:27;;;;;;;11.38;5.05;;;11.10;99.90;;;;;;5011318;28;20046;-87
2023/05/20 02:19:53;;;;;;;11.07;5.10;;;11.10;99.90;;;;;;5018688;28;20037;-85
2023/05/20 02:22:19;;;;;;;10.80;5.18;;;11.10;99.90;;;;;;4994459;28;20033;-86
2023/05/20 02:24:45;;;;;;;8.07;4.85;;;11.10;99.90;;;;;;4991536;28;20053;-86
2023/05/20 02:27:10;;;;;;;12.35;5.25;;;11.10;99.90;;;;;;5032766;28;20508;-86
2023/05/20 02:29:36;;;;;;;11.77;5.00;;;11.10;99.90;;;;;;5000780;28;20057;-87
2023/05/20 02:32:02;;;;;;;11.18;4.95;;;11.10;99.90;;;;;;5019014;28;20049;-86
2023/05/20 02:34:29;;;;;;;10.88;5.13;;;11.00;99.90;;;;;;5004926;28;20033;-86
2023/05/20 02:36:55;;;;;;;10.90;5.55;;;11.10;99.90;;;;;;4995528;28;20049;-86
2023/05/20 02:39:21;;;;;;;13.38;5.28;;;11.10;99.90;;;;;;5027836;28;20121;-86
2023/05/20 02:41:47;;;;;;;11.77;5.35;;;11.10;99.90;;;;;;4999592;28;20136;-87
2023/05/20 02:44:13;;;;;;;13.48;5.60;;;11.00;99.90;;;;;;5017312;28;20105;-86
2023/05/20 02:46:39;;;;;;;10.75;5.03;;;11.00;99.90;;;;;;5017560;28;20489;-85
2023/05/20 02:49:04;;;;;;;11.80;5.40;;;11.00;99.90;;;;;;5014650;28;20099;-87
2023/05/20 02:51:33;;;;;;;8.88;4.78;;;11.00;99.90;;;;;;5002178;28;20071;-87
2023/05/20 02:53:58;;;;;;;8.55;4.78;;;11.00;99.90;;;;;;4987542;28;20037;-86
2023/05/20 02:56:25;;;;;;;16.08;5.30;;;11.00;99.90;;;;;;5029267;28;20064;-84
2023/05/20 02:58:51;;;;;;;10.55;5.35;;;11.00;99.90;;;;;;5038057;28;20035;-86
2023/05/20 03:01:17;;;;;;;10.05;5.60;;;11.00;99.90;;;;;;5007356;28;20068;-86
2023/05/20 03:03:43;;;;;;;9.27;5.22;;;11.00;99.90;;;;;;5016532;28;20535;-86
2023/05/20 03:06:09;;;;;;;11.50;4.90;;;10.90;99.90;;;;;;5017470;28;20040;-86
2023/05/20 03:08:35;;;;;;;8.68;4.72;;;10.90;99.90;;;;;;5018471;28;20043;-86
2023/05/20 03:11:00;;;;;;;11.40;4.97;;;10.90;99.90;;;;;;4984769;28;20045;-86
2023/05/20 03:13:26;;;;;;;12.55;5.20;;;10.90;99.90;;;;;;5018661;28;20048;-87
2023/05/20 03:15:52;;;;;;;7.28;4.47;;;10.90;99.90;;;;;;4997484;28;20041;-85
2023/05/20 03:18:18;;;;;;;10.27;4.93;;;10.90;99.90;;;;;;5017096;28;20043;-85
2023/05/20 03:20:45;;;;;;;12.10;4.80;;;10.90;99.90;;;;;;5016185;28;20131;-85
2023/05/20 03:23:11;;;;;;;11.07;5.32;;;10.90;99.90;;;;;;5010080;28;20053;-85
2023/05/20 03:25:37;;;;;;;9.95;5.13;;;10.90;99.90;;;;;;5015496;28;20049;-85
2023/05/20 03:28:05;;;;;;;10.77;5.50;;;10.90;99.90;;;;;;4989894;28;20037;-87
2023/05/20 03:30:31;;;;;;;9.55;5.20;;;10.90;99.90;;;;;;5029415;28;20041;-85
2023/05/20 03:32:57;;;;;;;7.93;4.25;;;10.90;99.90;;;;;;5009695;28;20045;-85
2023/05/20 03:35:23;;;;;;;9.05;4.97;;;10.90;99.90;;;;;;5010641;28;20052;-86
2023/05/20 03:37:50;;;;;;;9.43;4.50;;;10.90;99.90;;;;;;4987026;28;20037;-86
2023/05/20 03:40:16;;;;;;;7.90;4.90;;;10.90;99.90;;;;;;5003318;28;20033;-86
2023/05/20 03:42:42;;;;;;;9.20;4.95;;;10.90;99.90;;;;;;5018845;28;20048;-86
2023/05/20 03:45:08;;;;;;;14.27;5.20;;;10.90;99.90;;;;;;5018081;28;20078;-86
2023/05/20 03:47:34;;;;;;;10.75;4.88;;;10.90;99.90;;;;;;5017398;28;20045;-85
2023/05/20 03:50:00;;;;;;;9.32;4.57;;;10.90;99.90;;;;;;4993129;28;20107;-86
2023/05/20 03:52:25;;;;;;;9.45;4.55;;;10.90;99.90;;;;;;5012928;28;20043;-87
2023/05/20 03:54:52;;;;;;;8.63;4.72;;;10.90;99.90;;;;;;5015439;28;20045;-86
2023/05/20 03:57:18;;;;;;;9.88;4.68;;;10.90;99.90;;;;;;5035187;28;20036;-86
2023/05/20 03:59:44;;;;;;;8.65;4.63;;;10.90;99.90;;;;;;4984234;28;20490;-85
2023/05/20 04:02:10;;;;;;;11.63;4.68;;;10.90;99.90;;;;;;5027009;28;20076;-86
2023/05/20 04:04:36;;;;;;;13.40;4.57;;;10.90;99.90;;;;;;5002593;28;20045;-87
2023/05/20 04:07:03;;;;;;;7.22;4.55;;;10.90;99.90;;;;;;4995747;28;20095;-86
2023/05/20 04:09:30;;;;;;;8.88;4.53;;;11.00;99.90;;;;;;5007824;28;20052;-85
2023/05/20 04:11:55;;;;;;;10.93;4.25;;;10.90;99.90;;;;;;5010596;28;20040;-85
2023/05/20 04:14:21;;;;;;;8.35;4.50;;;11.00;99.90;;;;;;5023460;28;20042;-84
2023/05/20 04:16:49;;;;;;;6.50;3.90;;;11.00;99.90;;;;;;5017585;28;20049;-85
2023/05/20 04:19:14;;;;;;;9.35;4.30;;;11.00;99.90;;;;;;4999620;28;20124;-87
2023/05/20 04:21:42;;;;;;;9.35;4.32;;;11.00;99.90;;;;;;5021939;28;20175;-86
2023/05/20 04:24:07;;;;;;;9.77;4.35;;;11.10;99.90;;;;;;5006339;28;20045;-86
2023/05/20 04:26:34;;;;;;;12.23;4.53;;;11.00;99.90;;;;;;4997206;28;20052;-85
2023/05/20 04:29:02;;;;;;;8.65;3.88;;;11.10;99.90;;;;;;5000573;28;20048;-86
2023/05/20 04:31:29;;;;;;;9.38;4.00;;;11.00;99.90;;;;;;4998101;28;20049;-87
2023/05/20 04:33:56;;;;;;;7.18;3.97;;;11.10;99.90;;;;;;5018750;28;20052;-87
2023/05/20 04:36:27;;;;;;;8.07;4.00;;;11.00;99.90;;;;;;5049826;28;20032;-86
2023/05/20 04:38:56;;;;;;;7.80;4.15;;;11.00;99.90;;;;;;5001950;28;20049;-85
2023/05/20 04:41:22;;;;;;;10.15;3.50;;;11.10;99.90;;;;;;5016423;28;20045;-86
2023/05/20 04:43:48;;;;;;;9.05;3.88;;;11.00;99.90;;;;;;4989296;28;20122;-86
2023/05/20 04:46:15;;;;;;;7.45;3.92;;;11.10;99.90;;;;;;5031510;28;20046;-86
2023/05/20 04:48:42;;;;;;;6.47;3.83;;;11.10;99.90;;;;;;5000270;28;20069;-86
2023/05/20 04:51:08;;;;;;;7.13;3.78;;;11.20;99.90;;;;;;4990512;28;20045;-86
2023/05/20 04:53:35;;;;;;;7.68;4.10;;;11.20;99.90;;;;;;5001986;28;20037;-86
2023/05/20 04:56:02;;;;;;;6.88;3.80;;;11.20;99.90;;;;;;4988285;28;20176;-87
2023/05/20 04:58:29;;;;;;;8.25;3.88;;;11.20;99.90;;;;;;5012509;28;20552;-86
2023/05/20 05:00:55;;;;;;;7.30;3.40;;;11.20;99.90;;;;;;5030480;28;20052;-86
2023/05/20 05:03:21;;;;;;;7.35;3.70;;;11.20;99.90;;;;;;5012687;28;20483;-86
2023/05/20 05:05:47;;;;;;;11.20;3.45;;;11.30;99.90;;;;;;5025837;28;20037;-86
2023/05/20 05:08:13;;;;;;;6.45;3.72;;;11.30;99.90;;;;;;5008464;28;20037;-86
2023/05/20 05:10:39;;;;;;;5.53;3.55;;;11.20;99.90;;;;;;5024421;28;20036;-87
2023/05/20 05:13:05;;;;;;;11.00;3.55;;;11.20;99.90;;;;;;5016053;28;20471;-84
2023/05/20 05:15:30;;;;;;;5.45;3.33;;;11.30;99.90;;;;;;5015509;28;20164;-87
2023/05/20 05:17:56;;;;;;;8.23;3.58;;;11.30;99.90;;;;;;4995811;28;20115;-87
2023/05/20 05:20:22;;;;;;;4.50;3.33;;;11.30;99.90;;;;;;5017687;28;20045;-87
2023/05/20 05:22:49;;;;;;;7.25;3.10;;;11.40;99.90;;;;;;5029741;28;20068;-87
2023/05/20 05:25:15;;;;;;;6.57;3.03;;;11.40;99.90;;;;;;4985352;28;20044;-87
2023/05/20 05:27:41;;;;;;;6.35;3.35;;;11.40;99.90;;;;;;5026767;28;20101;-86
2023/05/20 05:30:07;;;;;;;5.03;2.67;;;11.50;99.90;;;;;;5047504;28;20123;-85
2023/05/20 05:32:33;;;;;;;6.82;3.10;;;11.50;99.90;;;;;;5032781;28;20447;-84
2023/05/20 05:34:59;;;;;;;8.98;2.97;;;11.60;99.90;;;;;;5018453;28;20040;-87
2023/05/20 05:37:25;;;;;;;5.78;2.90;;;11.60;99.90;;;;;;5001526;28;20040;-88
2023/05/20 05:39:51;;;;;;;7.80;3.20;;;11.70;99.90;;;;;;5000702;28;20473;-88
2023/05/20 05:42:17;;;;;;;6.70;3.05;;;11.70;99.90;;;;;;5034727;28;20123;-87
2023/05/20 05:44:43;;;;;;;6.05;3.05;;;11.70;99.90;;;;;;5014785;28;20187;-88
2023/05/20 05:47:10;;;;;;;5.60;2.90;;;11.80;99.90;;;;;;5000848;28;20048;-87
2023/05/20 05:49:36;;;;;;;7.30;3.08;;;11.90;99.90;;;;;;5013707;28;20089;-87
2023/05/20 05:52:01;;;;;;;4.97;3.30;;;11.90;99.90;;;;;;5011673;28;20095;-88
2023/05/20 05:54:27;;;;;;;5.25;2.88;;;12.00;99.90;;;;;;5000777;28;20428;-87
2023/05/20 05:56:55;;;;;;;5.57;3.00;;;12.00;99.90;;;;;;4999358;28;20052;-88
2023/05/20 05:59:21;;;;;;;5.75;2.83;;;12.10;99.90;;;;;;5032647;28;20119;-87
2023/05/20 06:01:47;;;;;;;5.40;2.83;;;12.20;99.90;;;;;;5013650;28;20084;-84
2023/05/20 06:04:12;;;;;;;5.95;2.25;;;12.20;99.90;;;;;;4997935;28;20096;-86
2023/05/20 06:06:39;;;;;;;4.32;2.75;;;12.30;99.90;;;;;;5001803;28;20071;-86
2023/05/20 06:09:04;;;;;;;6.38;2.75;;;12.40;99.90;;;;;;4973592;28;20405;-86
2023/05/20 06:11:30;;;;;;;5.72;2.55;;;12.50;99.90;;;;;;5015396;28;20067;-84
2023/05/20 06:13:56;;;;;;;4.28;2.35;;;12.50;99.90;;;;;;4985076;28;20037;-84
2023/05/20 06:16:22;;;;;;;3.58;2.30;;;12.60;99.90;;;;;;5017288;28;20086;-85
2023/05/20 06:18:52;;;;;;;4.80;2.22;;;12.70;99.90;;;;;;5015858;28;20091;-84
2023/05/20 06:21:17;;;;;;;4.72;2.40;;;12.80;99.90;;;;;;4995619;28;20396;-84
2023/05/20 06:23:43;;;;;;;6.88;2.33;;;12.90;99.90;;;;;;4999557;28;20041;-84
2023/05/20 06:26:09;;;;;;;5.15;2.50;;;13.00;99.90;;;;;;5029110;28;20048;-86
2023/05/20 06:28:35;;;;;;;4.68;2.67;;;13.10;99.90;;;;;;5019323;28;20037;-84
2023/05/20 06:31:00;;;;;;;3.17;2.30;;;13.20;99.90;;;;;;4994641;28;20092;-82
2023/05/20 06:33:28;;;;;;;4.97;2.45;;;13.30;99.90;;;;;;4982641;28;20041;-84
2023/05/20 06:35:55;;;;;;;4.15;2.17;;;13.50;99.90;;;;;;5029041;28;20059;-83
2023/05/20 06:38:21;;;;;;;4.88;2.30;;;13.60;99.90;;;;;;5019876;28;20504;-85
2023/05/20 06:40:48;;;;;;;5.80;2.40;;;13.80;99.90;;;;;;5022497;28;20029;-84
2023/05/20 06:43:14;;;;;;;3.95;2.05;;;14.00;99.90;;;;;;5017845;28;20041;-83
2023/05/20 06:45:40;;;;;;;8.82;2.75;;;14.40;99.90;;;;;;5024112;28;20065;-84
2023/05/20 06:48:06;;;;;;;6.32;2.17;;;14.80;99.90;;;;;;5020688;28;20511;-83
2023/05/20 06:50:31;;;;;;;3.85;2.30;;;15.10;99.90;;;;;;5004712;28;20036;-83
2023/05/20 06:52:57;;;;;;;5.05;2.55;;;15.20;99.90;;;;;;5019585;28;20414;-83
2023/05/20 06:55:23;;;;;;;4.70;2.33;;;15.40;99.90;;;;;;5009558;28;20099;-84
2023/05/20 06:57:48;;;;;;;7.00;2.63;;;15.60;99.90;;;;;;4998984;28;20564;-86
2023/05/20 07:00:14;;;;;;;3.55;2.20;;;15.80;99.90;;;;;;5016073;28;20045;-87
2023/05/20 07:02:43;;;;;;;3.92;2.28;;;16.00;99.90;;;;;;4985029;28;20073;-86
2023/05/20 07:05:09;;;;;;;5.93;2.50;;;16.10;99.90;;;;;;5031962;28;20048;-86
2023/05/20 07:07:35;;;;;;;5.53;2.20;;;16.20;99.90;;;;;;5010412;28;20045;-86
2023/05/20 07:10:04;;;;;;;3.25;1.98;;;16.40;99.90;;;;;;4994620;28;20045;-86
2023/05/20 07:12:32;;;;;;;3.95;2.10;;;16.60;99.90;;;;;;5019591;28;20048;-89
2023/05/20 07:14:58;;;;;;;3.28;2.10;;;16.80;99.90;;;;;;5041595;28;20038;-88
2023/05/20 07:17:24;;;;;;;3.80;2.03;;;17.10;99.90;;;;;;5019224;28;20048;-86
2023/05/20 07:19:50;;;;;;;4.53;2.53;;;17.50;99.90;;;;;;5010921;28;20044;-85
2023/05/20 07:22:16;;;;;;;6.20;2.60;;;17.70;99.90;;;;;;4994988;28;20065;-85
2023/05/20 07:24:42;;;;;;;6.43;2.25;;;17.90;99.90;;;;;;4984768;28;20138;-86
2023/05/20 07:27:08;;;;;;;4.57;2.03;;;18.20;99.90;;;;;;5017082;28;20175;-86
2023/05/20 07:29:34;;;;;;;5.70;2.47;;;18.40;99.90;;;;;;5003345;28;20052;-86
2023/05/20 07:32:01;;;;;;;5.28;2.33;;;18.50;99.90;;;;;;5016557;28;20509;-86
2023/05/20 07:34:26;;;;;;;5.68;2.50;;;18.70;99.90;;;;;;5017560;28;20120;-85
2023/05/20 07:36:52;;;;;;;4.40;2.28;;;18.80;99.90;;;;;;5000837;28;20123;-87
2023/05/20 07:39:18;;;;;;;7.45;2.22;;;19.00;99.90;;;;;;5019483;28;20055;-85
2023/05/20 07:41:44;;;;;;;2.97;1.90;;;19.00;99.90;;;;;;4988599;28;20045;-86
2023/05/20 07:44:11;;;;;;;6.10;2.45;;;19.20;99.90;;;;;;5003892;28;20409;-86
2023/05/20 07:46:37;;;;;;;6.57;2.47;;;19.30;99.90;;;;;;5021177;28;20392;-86
2023/05/20 07:49:03;;;;;;;4.32;2.30;;;19.40;99.90;;;;;;5003368;28;20881;-89
2023/05/20 07:51:30;;;;;;;4.30;2.30;;;19.50;99.90;;;;;;5012179;28;20047;-87
2023/05/20 07:53:56;;;;;;;3.80;2.50;;;19.60;99.40;;;;;;5021653;28;20041;-88
2023/05/20 07:56:22;;;;;;;4.25;2.80;;;19.60;99.00;;;;;;5027222;28;20642;-87
2023/05/20 07:59:06;;;;;;;4.75;1.98;;;19.60;98.40;;;;;;5009336;28;20041;-88
2023/05/20 08:01:31;;;;;;;6.18;2.42;;;19.70;95.80;;;;;;5005469;28;20602;-88
2023/05/20 08:03:57;;;;;;;4.45;2.20;;;19.70;97.80;;;;;;5010368;28;20116;-86
2023/05/20 08:06:23;;;;;;;4.47;2.40;;;19.80;97.80;;;;;;4996651;28;20512;-89
2023/05/20 08:08:49;;;;;;;3.53;2.30;;;19.90;97.70;;;;;;5002021;28;20490;-88
2023/05/20 08:11:15;;;;;;;7.32;2.50;;;19.80;97.00;;;;;;4993860;28;20049;-87
2023/05/20 08:13:41;;;;;;;3.63;2.35;;;19.80;96.90;;;;;;4986389;28;20036;-88
2023/05/20 08:16:06;;;;;;;4.65;2.45;;;19.90;96.70;;;;;;5004722;28;20124;-87
2023/05/20 08:18:35;;;;;;;3.63;2.40;;;20.00;96.90;;;;;;5006153;28;20495;-86
2023/05/20 08:21:01;;;;;;;5.45;2.42;;;20.10;96.00;;;;;;5009847;28;20049;-89
2023/05/20 08:23:26;;;;;;;5.13;2.00;;;20.20;96.20;;;;;;5035162;28;20433;-87
2023/05/20 08:25:52;;;;;;;3.88;2.60;;;20.20;95.30;;;;;;5019029;28;20129;-88
2023/05/20 08:28:18;;;;;;;5.38;2.65;;;20.10;95.20;;;;;;5010368;28;20045;-86
2023/05/20 08:30:44;;;;;;;7.25;2.45;;;20.10;95.10;;;;;;4986520;28;20140;-88
2023/05/20 08:33:11;;;;;;;6.40;2.33;;;20.20;95.60;;;;;;5002597;28;20044;-86
2023/05/20 08:35:38;;;;;;;3.78;2.15;;;20.20;94.80;;;;;;5036632;28;20409;-87
2023/05/20 08:38:04;;;;;;;3.58;2.45;;;20.30;94.70;;;;;;4998602;28;20046;-88
2023/05/20 08:40:30;;;;;;;4.32;2.20;;;20.40;94.50;;;;;;5019489;28;20044;-88
2023/05/20 08:42:58;;;;;;;3.25;2.15;;;20.50;94.10;;;;;;4987120;28;20101;-88
2023/05/20 08:45:27;;;;;;;3.55;2.00;;;20.50;93.60;;;;;;5017462;28;20119;-88
2023/05/20 08:47:53;;;;;;;8.15;2.85;;;20.50;93.40;;;;;;5019726;28;20127;-88
2023/05/20 08:50:19;;;;;;;3.28;2.20;;;20.60;93.20;;;;;;5016118;28;20044;-88
2023/05/20 08:52:47;;;;;;;3.28;2.08;;;20.50;92.60;;;;;;4983356;28;20038;-88
2023/05/20 08:55:40;;;;;;;5.53;2.33;;;20.40;92.70;;;;;;5018858;28;20375;-88
2023/05/20 08:58:06;;;;;;;6.38;2.50;;;20.40;92.60;;;;;;5010758;28;20052;-88
2023/05/20 09:00:32;;;;;;;3.85;2.10;;;20.40;92.70;;;;;;4997502;28;20041;-88
2023/05/20 09:02:59;;;;;;;4.38;2.00;;;20.40;92.60;;;;;;5030550;28;20131;-87
2023/05/20 09:05:26;;;;;;;7.35;2.33;;;20.50;92.70;;;;;;5015084;28;20500;-88
2023/05/20 09:07:51;;;;;;;5.28;2.60;;;20.60;92.40;;;;;;5002150;28;20041;-88
2023/05/20 09:10:19;;;;;;;5.38;2.00;;;20.70;92.30;;;;;;5010851;28;20041;-88
2023/05/20 09:12:45;;;;;;;4.10;2.42;;;20.80;92.70;;;;;;5030200;28;20116;-87
2023/05/20 09:15:11;;;;;;;4.75;1.95;;;20.90;92.20;;;;;;5000068;28;20475;-87
2023/05/20 09:17:37;;;;;;;3.22;1.90;;;21.00;91.60;;;;;;4984124;28;20045;-89
2023/05/20 09:20:10;;;;;;;5.35;2.47;;;21.10;91.10;;;;;;5009845;28;20048;-88
2023/05/20 09:22:37;;;;;;;3.45;2.00;;;21.10;90.00;;;;;;4993684;28;20045;-87
2023/05/20 09:25:04;;;;;;;6.30;2.40;;;21.00;90.50;;;;;;5016761;28;20049;-88
2023/05/20 09:27:29;;;;;;;3.60;2.05;;;21.00;90.40;;;;;;4982480;28;20485;-86
2023/05/20 09:29:55;;;;;;;4.90;1.88;;;21.00;90.50;;;;;;5013788;28;20043;-86
2023/05/20 09:32:27;;;;;;;4.57;2.15;;;21.00;90.30;;;;;;5017092;28;20164;-84
2023/05/20 09:34:52;;;;;;;2.90;1.98;;;21.00;90.00;;;;;;5000073;28;20049;-84
2023/05/20 09:37:20;;;;;;;10.82;2.28;;;21.10;90.40;;;;;;5015841;28;20094;-85
2023/05/20 09:39:56;;;;;;;4.13;1.90;;;21.20;90.30;;;;;;5015529;28;20033;-85
2023/05/20 09:42:27;;;;;;;4.80;2.08;;;21.20;89.70;;;;;;5020867;28;20040;-89
2023/05/20 09:44:55;;;;;;;4.50;2.10;;;21.20;89.80;;;;;;5015999;28;20388;-87
2023/05/20 09:47:23;;;;;;;4.95;1.95;;;21.10;89.90;;;;;;4999750;28;20036;-86
2023/05/20 09:49:52;;;;;;;4.22;2.20;;;21.10;89.70;;;;;;5034936;28;20041;-87
2023/05/20 09:52:18;;;;;;;6.80;2.38;;;21.00;89.30;;;;;;5014788;28;20163;-88
2023/05/20 09:54:45;;;;;;;3.88;2.00;;;20.90;88.70;;;;;;5016423;28;20033;-85
2023/05/20 09:57:12;;;;;;;3.75;1.80;;;20.80;88.40;;;;;;5000067;28;20496;-86
2023/05/20 09:59:41;;;;;;;4.90;1.92;;;20.70;88.10;;;;;;5018143;28;20505;-87
2023/05/20 10:02:07;;;;;;;2.78;1.85;;;20.70;87.90;;;;;;5002812;28;20095;-86
2023/05/20 10:04:36;;;;;;;3.17;1.80;;;20.60;87.80;;;;;;5001689;28;20519;-86
2023/05/20 10:07:41;;;;;;;8.90;2.15;;;20.60;87.90;;;;;;5019258;28;20056;-85
2023/05/20 10:10:25;;;;;;;4.20;1.67;;;20.60;88.40;;;;;;5013980;28;20072;-86
2023/05/20 10:13:17;;;;;;;3.85;1.85;;;20.60;88.40;;;;;;5013866;28;20041;-85
2023/05/20 10:16:13;;;;;;;2.70;1.60;;;20.60;86.40;;;;;;5025394;28;20040;-86
2023/05/20 10:19:20;;;;;;;4.75;1.70;;;20.50;85.80;;;;;;5035828;28;20041;-87
2023/05/20 10:22:06;;;;;;;3.28;1.88;;;20.40;86.90;;;;;;5015343;28;20041;-83
2023/05/20 10:24:36;;;;;;;3.03;1.90;;;20.40;87.50;;;;;;5020446;28;20487;-89
2023/05/20 10:27:08;;;;;;;2.35;1.70;;;20.50;87.40;;;;;;5025432;28;20090;-88
2023/05/20 10:29:42;;;;;;;5.75;1.92;;;20.50;86.50;;;;;;5046901;28;20097;-87
2023/05/20 10:32:08;;;;;;;8.85;2.10;;;20.50;86.30;;;;;;5013356;28;20412;-88
2023/05/20 10:34:46;;;;;;;5.13;1.70;;;20.50;86.40;;;;;;5010149;28;20049;-89
2023/05/20 10:37:24;;;;;;;5.15;1.80;;;20.50;86.70;;;;;;5004735;28;20046;-87
2023/05/20 10:39:50;;;;;;;5.38;2.03;;;20.40;86.80;;;;;;5000645;28;20528;-88
2023/05/20 10:42:26;;;;;;;2.85;1.92;;;20.40;86.90;;;;;;4993242;28;20041;-88
2023/05/20 10:44:51;;;;;;;5.90;2.00;;;20.50;86.50;;;;;;5002419;28;20045;-89
2023/05/20 10:47:17;;;;;;;5.20;2.08;;;20.60;86.10;;;;;;5007234;28;20133;-88
2023/05/20 10:49:47;;;;;;;11.50;2.00;;;20.80;85.60;;;;;;5013648;28;20048;-87
2023/05/20 10:52:13;;;;;;;3.70;1.90;;;20.80;84.80;;;;;;5012703;28;20500;-88
2023/05/20 10:54:44;;;;;;;9.32;2.03;;;20.90;83.70;;;;;;5008577;28;20124;-88
2023/05/20 10:57:10;;;;;;;5.28;1.88;;;20.80;83.60;;;;;;5012998;28;20037;-89
2023/05/20 10:59:36;;;;;;;3.35;1.70;;;20.70;83.00;;;;;;4994830;28;20074;-92
2023/05/20 11:02:02;;;;;;;3.00;1.83;;;20.70;83.40;;;;;;5019136;28;20493;-87
2023/05/20 11:04:31;;;;;;;3.78;1.60;;;20.90;83.60;;;;;;4996749;28;20116;-88
2023/05/20 11:06:57;;;;;;;6.50;1.95;;;21.00;84.90;;;;;;5000173;28;20034;-89
2023/05/20 11:09:23;;;;;;;6.43;1.88;;;21.00;84.00;;;;;;4996203;28;20124;-90
2023/05/20 11:11:51;;;;;;;3.13;1.70;;;21.10;82.90;;;;;;4999255;28;20096;-89
2023/05/20 11:14:18;;;;;;;2.75;1.50;;;21.10;83.80;;;;;;5004088;28;20057;-87
2023/05/20 11:16:45;;;;;;;3.42;1.80;;;21.10;83.90;;;;;;5001246;28;20085;-87
2023/05/20 11:19:20;;;;;;;7.57;2.10;;;21.20;84.00;;;;;;4997051;28;20555;-87
2023/05/20 11:21:47;;;;;;;9.15;2.65;;;21.10;83.40;;;;;;5017533;28;20037;-86
2023/05/20 11:24:13;;;;;;;3.47;1.88;;;21.00;83.20;;;;;;4974199;28;20037;-88
2023/05/20 11:26:39;;;;;;;3.13;1.90;;;20.90;83.50;;;;;;5032548;28;20045;-89
2023/05/20 11:29:05;;;;;;;4.65;1.98;;;20.80;83.80;;;;;;5017692;28;20049;-89
2023/05/20 11:31:31;;;;;;;6.30;2.30;;;20.80;84.00;;;;;;5030014;28;20495;-89
2023/05/20 11:34:00;;;;;;;4.95;1.83;;;20.80;83.90;;;;;;4997857;28;20041;-88
2023/05/20 11:36:29;;;;;;;5.43;2.03;;;20.70;84.20;;;;;;4978313;28;20030;-87
2023/05/20 11:38:59;;;;;;;4.43;1.95;;;20.80;84.50;;;;;;4988903;28;20088;-89
2023/05/20 11:41:28;;;;;;;4.65;1.83;;;20.80;84.20;;;;;;4991889;28;20041;-89
2023/05/20 11:44:00;;;;;;;6.07;2.20;;;20.80;84.00;;;;;;5006039;28;20041;-90
2023/05/20 11:46:27;;;;;;;3.75;1.88;;;20.80;84.10;;;;;;4999189;28;20041;-89
2023/05/20 11:48:53;;;;;;;7.68;2.00;;;20.90;84.90;;;;;;4996251;28;20052;-90
2023/05/20 11:51:38;;;;;;;6.10;1.98;;;21.00;84.20;;;;;;5009917;28;20065;-91
2023/05/20 11:54:05;;;;;;;4.60;1.73;;;21.00;82.90;;;;;;4984345;28;20059;-90
2023/05/20 11:56:36;;;;;;;4.80;1.88;;;21.00;83.30;;;;;;5002844;28;20057;-91
2023/05/20 11:59:03;;;;;;;7.80;1.90;;;21.10;82.60;;;;;;4999133;28;20038;-91
2023/05/20 12:01:32;;;;;;;5.85;1.88;;;21.20;83.00;;;;;;5017847;28;20044;-89
2023/05/20 12:03:58;;;;;;;9.57;1.80;;;21.20;83.00;;;;;;5017104;28;20064;-93
2023/05/20 12:06:24;;;;;;;5.22;1.73;;;21.20;82.30;;;;;;4985394;28;20045;-90
2023/05/20 12:08:50;;;;;;;3.45;1.58;;;21.20;82.90;;;;;;4986689;28;20045;-91
2023/05/20 12:11:16;;;;;;;3.90;1.50;;;21.40;83.10;;;;;;4995082;28;20048;-89
2023/05/20 12:13:41;;;;;;;3.78;1.70;;;21.50;82.50;;;;;;4997000;28;20041;-88
2023/05/20 12:16:07;;;;;;;5.03;2.00;;;21.40;80.70;;;;;;4993611;28;20026;-91
2023/05/20 12:18:33;;;;;;;4.78;2.00;;;21.40;81.40;;;;;;4996851;28;20037;-91
2023/05/20 12:20:59;;;;;;;4.28;1.67;;;21.50;81.10;;;;;;5004276;28;20033;-91
2023/05/20 12:23:25;;;;;;;4.97;1.70;;;21.50;81.10;;;;;;4986294;28;20057;-92
2023/05/20 12:25:51;;;;;;;5.55;1.67;;;21.40;81.10;;;;;;5016053;28;20041;-91
2023/05/20 12:28:17;;;;;;;6.10;1.85;;;21.40;81.30;;;;;;4992316;28;20033;-91
2023/05/20 12:30:42;;;;;;;4.35;1.73;;;21.30;81.40;;;;;;4982084;28;20061;-91
2023/05/20 12:33:08;;;;;;;5.70;2.20;;;21.40;80.80;;;;;;4997788;28;20046;-91
2023/05/20 12:35:39;;;;;;;3.72;1.50;;;21.50;81.40;;;;;;4993940;28;20034;-89
2023/05/20 12:38:05;;;;;;;5.45;1.67;;;21.60;81.30;;;;;;4999531;28;20034;-92
2023/05/20 12:40:32;;;;;;;5.82;1.90;;;21.90;80.80;;;;;;4992372;28;20033;-92
2023/05/20 12:42:59;;;;;;;4.00;1.90;;;22.20;80.20;;;;;;5021964;28;20095;-91